Time;durP1;ratioP1;P1;durP2;ratioP2;P2;SDS_P1;SDS_P2;PMS_P1;PMS_P2;Temp;Humidity;BMP_temperature;BMP_pressure;BME280_temperature;BME280_humidity;BME280_pressure;Samples;Min_cycle;Max_cycle;Signal;HPM_P1;HPM_P2
2021/04/19 00:01:42;;;;;;;;;;;21.70;29.90;;;;;;497395;239;1246;-69
2021/04/19 00:03:43;;;;;;;;;;;21.80;29.80;;;;;;497302;239;953;-70
2021/04/19 00:05:44;;;;;;;;;;;21.90;29.80;;;;;;497353;239;2201;-69
2021/04/19 00:07:46;;;;;;;;;;;21.80;29.80;;;;;;497278;239;1190;-69
2021/04/19 00:09:47;;;;;;;;;;;21.80;29.80;;;;;;497331;239;1101;-69
2021/04/19 00:11:48;;;;;;;;;;;21.70;29.90;;;;;;497282;239;1204;-69
2021/04/19 00:13:49;;;;;;;;;;;21.80;29.80;;;;;;497319;239;1088;-70
2021/04/19 00:15:51;;;;;;;;;;;21.70;29.90;;;;;;497275;239;976;-69
2021/04/19 00:17:52;;;;;;;;;;;21.70;29.90;;;;;;497529;239;1092;-70
2021/04/19 00:19:53;;;;;;;;;;;21.70;29.90;;;;;;497303;240;1100;-70
2021/04/19 00:21:55;;;;;;;;;;;21.80;29.90;;;;;;497323;236;1116;-69
2021/04/19 00:23:56;;;;;;;;;;;21.80;29.90;;;;;;497348;239;1047;-70
2021/04/19 00:25:57;;;;;;;;;;;21.70;29.90;;;;;;497363;239;2141;-69
2021/04/19 00:27:58;;;;;;;;;;;21.60;30.00;;;;;;497295;239;1073;-69
2021/04/19 00:30:00;;;;;;;;;;;21.50;30.10;;;;;;497310;239;1082;-69
2021/04/19 00:32:01;;;;;;;;;;;21.30;30.30;;;;;;497302;239;1195;-70
2021/04/19 00:34:03;;;;;;;;;;;21.30;30.40;;;;;;497173;240;987;-69
2021/04/19 00:36:04;;;;;;;;;;;21.30;30.30;;;;;;497284;239;1198;-69
2021/04/19 00:38:05;;;;;;;;;;;21.30;30.40;;;;;;497401;239;1150;-70
2021/04/19 00:40:06;;;;;;;;;;;21.20;30.40;;;;;;497280;239;1066;-70
2021/04/19 00:42:08;;;;;;;;;;;21.20;30.40;;;;;;497370;239;1165;-69
2021/04/19 00:44:09;;;;;;;;;;;21.20;30.50;;;;;;497290;239;1015;-69
2021/04/19 00:46:10;;;;;;;;;;;21.20;30.50;;;;;;497289;239;2177;-69
2021/04/19 00:48:12;;;;;;;;;;;21.20;30.40;;;;;;497330;239;1029;-70
2021/04/19 00:50:13;;;;;;;;;;;21.40;30.40;;;;;;497308;239;968;-70
2021/04/19 00:52:14;;;;;;;;;;;21.30;30.30;;;;;;497375;239;1237;-69
2021/04/19 00:54:15;;;;;;;;;;;21.20;30.40;;;;;;497345;239;1051;-69
2021/04/19 00:56:17;;;;;;;;;;;21.30;30.30;;;;;;497322;239;1083;-69
2021/04/19 00:58:18;;;;;;;;;;;21.30;30.40;;;;;;497212;239;1037;-69
2021/04/19 01:00:19;;;;;;;;;;;21.30;30.40;;;;;;497267;239;1041;-69
2021/04/19 01:02:21;;;;;;;;;;;21.30;30.20;;;;;;497256;239;1031;-70
2021/04/19 01:04:22;;;;;;;;;;;21.20;30.40;;;;;;497301;239;947;-69
2021/04/19 01:06:23;;;;;;;;;;;21.20;30.50;;;;;;497258;239;2137;-69
2021/04/19 01:08:24;;;;;;;;;;;21.20;30.40;;;;;;497420;239;1075;-69
2021/04/19 01:10:26;;;;;;;;;;;21.30;30.40;;;;;;497296;239;1301;-69
2021/04/19 01:12:27;;;;;;;;;;;21.20;30.40;;;;;;497309;239;1137;-69
2021/04/19 01:14:28;;;;;;;;;;;21.20;30.40;;;;;;497312;239;991;-69
2021/04/19 01:16:30;;;;;;;;;;;21.20;30.40;;;;;;497260;239;1166;-69
2021/04/19 01:18:31;;;;;;;;;;;21.20;30.50;;;;;;497393;239;1172;-69
2021/04/19 01:20:32;;;;;;;;;;;21.10;30.50;;;;;;497285;239;1049;-69
2021/04/19 01:22:33;;;;;;;;;;;21.20;30.40;;;;;;497290;239;1130;-69
2021/04/19 01:24:35;;;;;;;;;;;21.20;30.40;;;;;;497276;239;1024;-70
2021/04/19 01:26:36;;;;;;;;;;;21.20;30.50;;;;;;497179;239;2193;-70
2021/04/19 01:28:37;;;;;;;;;;;21.20;30.40;;;;;;497437;239;1004;-69
2021/04/19 01:30:39;;;;;;;;;;;21.30;30.40;;;;;;497350;239;1075;-69
2021/04/19 01:32:40;;;;;;;;;;;21.20;30.40;;;;;;497314;239;1084;-70
2021/04/19 01:34:41;;;;;;;;;;;21.20;30.40;;;;;;497326;239;1049;-69
2021/04/19 01:36:44;;;;;;;;;;;21.20;30.40;;;;;;497250;239;1090;-69
2021/04/19 01:38:44;;;;;;;;;;;21.20;30.40;;;;;;497312;239;1487;-70
2021/04/19 01:40:45;;;;;;;;;;;21.10;30.40;;;;;;497423;239;1189;-69
2021/04/19 01:42:46;;;;;;;;;;;21.20;30.40;;;;;;497369;239;1048;-69
2021/04/19 01:44:48;;;;;;;;;;;21.20;30.40;;;;;;497307;239;1146;-70
2021/04/19 01:46:49;;;;;;;;;;;21.10;30.40;;;;;;497275;239;2172;-69
2021/04/19 01:48:50;;;;;;;;;;;21.10;30.40;;;;;;497311;239;1091;-69
2021/04/19 01:50:51;;;;;;;;;;;21.10;30.40;;;;;;497217;238;1102;-69
2021/04/19 01:52:53;;;;;;;;;;;21.10;30.50;;;;;;497314;239;1161;-69
2021/04/19 01:54:54;;;;;;;;;;;21.00;30.50;;;;;;497313;239;973;-70
2021/04/19 01:56:55;;;;;;;;;;;21.10;30.50;;;;;;497287;239;1075;-69
2021/04/19 01:58:59;;;;;;;;;;;21.10;30.60;;;;;;497363;239;1103;-69
2021/04/19 02:00:58;;;;;;;;;;;21.10;30.60;;;;;;497244;239;1492;-69
2021/04/19 02:02:59;;;;;;;;;;;21.00;30.50;;;;;;497368;239;1016;-69
2021/04/19 02:05:00;;;;;;;;;;;21.10;30.60;;;;;;497263;239;1074;-69
2021/04/19 02:07:02;;;;;;;;;;;21.10;30.50;;;;;;497271;239;2188;-69
2021/04/19 02:09:03;;;;;;;;;;;21.10;30.60;;;;;;497363;239;1203;-70
2021/04/19 02:11:04;;;;;;;;;;;21.10;30.50;;;;;;497292;239;1276;-69
2021/04/19 02:13:06;;;;;;;;;;;21.20;30.50;;;;;;497329;238;1077;-69
2021/04/19 02:15:07;;;;;;;;;;;21.10;30.40;;;;;;497143;239;1375;-70
2021/04/19 02:17:08;;;;;;;;;;;21.10;30.50;;;;;;497283;239;1124;-69
2021/04/19 02:19:10;;;;;;;;;;;21.10;30.40;;;;;;497364;239;1069;-69
2021/04/19 02:21:11;;;;;;;;;;;21.10;30.50;;;;;;497365;239;1079;-70
2021/04/19 02:23:12;;;;;;;;;;;21.20;30.50;;;;;;497415;239;1211;-69
2021/04/19 02:25:13;;;;;;;;;;;21.10;30.50;;;;;;497377;239;1040;-69
2021/04/19 02:27:15;;;;;;;;;;;21.10;30.40;;;;;;497279;239;2177;-69
2021/04/19 02:29:16;;;;;;;;;;;21.10;30.40;;;;;;497259;239;965;-70
2021/04/19 02:31:17;;;;;;;;;;;21.10;30.50;;;;;;497240;239;1205;-69
2021/04/19 02:33:18;;;;;;;;;;;21.00;30.50;;;;;;497378;239;1156;-69
2021/04/19 02:35:20;;;;;;;;;;;21.10;30.50;;;;;;497359;239;1083;-69
2021/04/19 02:37:21;;;;;;;;;;;21.00;30.50;;;;;;497298;239;1246;-70
2021/04/19 02:39:22;;;;;;;;;;;21.00;30.60;;;;;;497168;239;1178;-70
2021/04/19 02:41:24;;;;;;;;;;;21.00;30.60;;;;;;497361;236;1292;-70
2021/04/19 02:43:25;;;;;;;;;;;21.10;30.40;;;;;;497396;239;1048;-69
2021/04/19 02:45:26;;;;;;;;;;;21.00;30.50;;;;;;497282;239;1067;-70
2021/04/19 02:47:27;;;;;;;;;;;21.00;30.50;;;;;;497364;240;2185;-70
2021/04/19 02:49:30;;;;;;;;;;;21.10;30.50;;;;;;497306;239;1089;-69
2021/04/19 02:51:30;;;;;;;;;;;21.10;30.50;;;;;;497200;239;1386;-69
2021/04/19 02:53:32;;;;;;;;;;;21.00;30.50;;;;;;497401;235;1289;-69
2021/04/19 02:55:33;;;;;;;;;;;21.00;30.50;;;;;;497298;239;1117;-69
2021/04/19 02:57:34;;;;;;;;;;;21.00;30.50;;;;;;497201;239;1134;-69
2021/04/19 02:59:35;;;;;;;;;;;21.30;30.40;;;;;;497358;239;1350;-69
2021/04/19 03:01:37;;;;;;;;;;;21.00;30.30;;;;;;497294;239;1183;-69
2021/04/19 03:03:40;;;;;;;;;;;21.10;30.30;;;;;;497339;239;960;-70
2021/04/19 03:05:41;;;;;;;;;;;21.20;30.40;;;;;;497351;239;958;-69
2021/04/19 03:07:42;;;;;;;;;;;21.10;30.40;;;;;;497255;239;2182;-69
2021/04/19 03:09:44;;;;;;;;;;;21.10;30.40;;;;;;497340;239;1513;-69
2021/04/19 03:11:45;;;;;;;;;;;21.00;30.50;;;;;;497310;239;1033;-69
2021/04/19 03:13:46;;;;;;;;;;;21.00;30.60;;;;;;497350;239;1163;-69
2021/04/19 03:15:47;;;;;;;;;;;20.90;30.70;;;;;;497339;239;1113;-69
2021/04/19 03:17:49;;;;;;;;;;;21.00;30.60;;;;;;497394;239;969;-69
2021/04/19 03:19:50;;;;;;;;;;;21.00;30.70;;;;;;497267;239;1118;-70
2021/04/19 03:21:52;;;;;;;;;;;20.90;30.70;;;;;;497317;239;928;-69
2021/04/19 03:23:53;;;;;;;;;;;21.00;30.60;;;;;;497332;239;1407;-69
2021/04/19 03:25:54;;;;;;;;;;;21.20;30.40;;;;;;497276;239;1100;-69
2021/04/19 03:27:55;;;;;;;;;;;21.10;30.50;;;;;;497314;239;2130;-69
2021/04/19 03:29:56;;;;;;;;;;;21.00;30.40;;;;;;497361;239;1004;-69
2021/04/19 03:31:58;;;;;;;;;;;21.00;30.50;;;;;;497384;239;1096;-69
2021/04/19 03:33:59;;;;;;;;;;;21.00;30.40;;;;;;497340;239;1347;-69
2021/04/19 03:36:00;;;;;;;;;;;21.10;30.40;;;;;;497289;239;1076;-69
2021/04/19 03:38:02;;;;;;;;;;;21.20;30.30;;;;;;497386;239;1041;-69
2021/04/19 03:40:03;;;;;;;;;;;21.20;30.40;;;;;;497245;239;1246;-69
2021/04/19 03:42:04;;;;;;;;;;;21.20;30.30;;;;;;497243;239;1063;-69
2021/04/19 03:44:05;;;;;;;;;;;21.30;30.20;;;;;;497375;239;1094;-70
2021/04/19 03:46:07;;;;;;;;;;;21.20;30.20;;;;;;497338;239;987;-69
2021/04/19 03:48:08;;;;;;;;;;;21.20;30.20;;;;;;497350;239;2118;-69
2021/04/19 03:50:09;;;;;;;;;;;21.20;30.20;;;;;;497321;239;981;-69
2021/04/19 03:52:11;;;;;;;;;;;21.30;30.10;;;;;;497196;239;1022;-70
2021/04/19 03:54:12;;;;;;;;;;;21.30;30.10;;;;;;497294;239;1161;-69
2021/04/19 03:56:13;;;;;;;;;;;21.30;30.20;;;;;;497305;239;962;-69
2021/04/19 03:58:14;;;;;;;;;;;21.20;30.20;;;;;;497370;239;1060;-69
2021/04/19 04:00:16;;;;;;;;;;;21.30;30.30;;;;;;497344;239;1208;-69
2021/04/19 04:02:17;;;;;;;;;;;21.20;30.20;;;;;;497308;239;1086;-69
2021/04/19 04:04:18;;;;;;;;;;;21.20;30.30;;;;;;497332;239;1139;-69
2021/04/19 04:06:20;;;;;;;;;;;21.30;30.20;;;;;;497297;239;1033;-69
2021/04/19 04:08:21;;;;;;;;;;;21.20;30.30;;;;;;497302;239;2188;-69
2021/04/19 04:10:22;;;;;;;;;;;21.20;30.30;;;;;;497204;239;1320;-69
2021/04/19 04:12:23;;;;;;;;;;;21.30;30.30;;;;;;497126;239;1112;-69
2021/04/19 04:14:25;;;;;;;;;;;21.20;30.30;;;;;;497357;239;1071;-69
2021/04/19 04:16:26;;;;;;;;;;;21.30;30.30;;;;;;497179;239;1189;-69
2021/04/19 04:18:27;;;;;;;;;;;21.20;30.30;;;;;;497278;239;1193;-69
2021/04/19 04:20:29;;;;;;;;;;;21.10;30.40;;;;;;497103;239;1223;-69
2021/04/19 04:22:30;;;;;;;;;;;21.00;30.50;;;;;;497188;239;1108;-69
2021/04/19 04:24:31;;;;;;;;;;;21.10;30.50;;;;;;497313;239;1176;-69
2021/04/19 04:26:32;;;;;;;;;;;21.10;30.40;;;;;;497116;239;1188;-69
2021/04/19 04:28:34;;;;;;;;;;;21.10;30.40;;;;;;497266;239;2114;-69
2021/04/19 04:30:35;;;;;;;;;;;21.20;30.40;;;;;;497171;239;1202;-69
2021/04/19 04:32:36;;;;;;;;;;;21.20;30.30;;;;;;497171;239;1196;-69
2021/04/19 04:34:39;;;;;;;;;;;21.20;30.20;;;;;;497170;239;1062;-69
2021/04/19 04:36:40;;;;;;;;;;;21.20;30.30;;;;;;497051;239;1193;-69
2021/04/19 04:38:41;;;;;;;;;;;21.30;30.20;;;;;;497050;239;1122;-69
2021/04/19 04:40:43;;;;;;;;;;;21.30;30.20;;;;;;497101;238;1194;-69
2021/04/19 04:42:44;;;;;;;;;;;21.30;30.30;;;;;;496993;239;1043;-69
2021/04/19 04:44:45;;;;;;;;;;;21.20;30.30;;;;;;497059;239;1083;-69
2021/04/19 04:46:47;;;;;;;;;;;21.20;30.40;;;;;;497115;239;2189;-69
2021/04/19 04:48:48;;;;;;;;;;;21.20;30.50;;;;;;497173;239;1027;-69
2021/04/19 04:50:49;;;;;;;;;;;21.20;30.40;;;;;;497110;239;1025;-68
2021/04/19 04:52:50;;;;;;;;;;;21.20;30.40;;;;;;497180;239;1056;-69
2021/04/19 04:54:52;;;;;;;;;;;21.20;30.40;;;;;;497018;239;1194;-69
2021/04/19 04:56:53;;;;;;;;;;;21.20;30.40;;;;;;497026;239;1155;-69
2021/04/19 04:58:54;;;;;;;;;;;21.30;30.40;;;;;;497005;239;1068;-69
2021/04/19 05:00:55;;;;;;;;;;;21.30;30.30;;;;;;497067;239;1050;-69
2021/04/19 05:02:57;;;;;;;;;;;21.30;30.40;;;;;;497083;239;1100;-70
2021/04/19 05:04:58;;;;;;;;;;;21.20;30.30;;;;;;497126;239;1058;-69
2021/04/19 05:06:59;;;;;;;;;;;21.30;30.30;;;;;;497103;239;2180;-69
2021/04/19 05:09:01;;;;;;;;;;;21.30;30.40;;;;;;497081;239;1087;-69
2021/04/19 05:11:02;;;;;;;;;;;21.20;30.30;;;;;;497095;239;1297;-69
2021/04/19 05:13:03;;;;;;;;;;;21.30;30.40;;;;;;497083;239;1075;-69
2021/04/19 05:15:06;;;;;;;;;;;21.40;30.40;;;;;;496994;239;1075;-69
2021/04/19 05:17:06;;;;;;;;;;;21.80;30.00;;;;;;496973;239;1325;-69
2021/04/19 05:19:07;;;;;;;;;;;22.40;29.30;;;;;;496910;239;1076;-69
2021/04/19 05:21:09;;;;;;;;;;;22.50;29.10;;;;;;496927;239;1205;-69
2021/04/19 05:23:10;;;;;;;;;;;22.40;29.20;;;;;;496965;239;1306;-69
2021/04/19 05:25:11;;;;;;;;;;;22.30;29.30;;;;;;496857;238;1056;-69
2021/04/19 05:27:13;;;;;;;;;;;22.20;29.40;;;;;;496889;239;2174;-69
2021/04/19 05:29:14;;;;;;;;;;;22.20;29.40;;;;;;496959;239;1062;-69
2021/04/19 05:31:15;;;;;;;;;;;22.30;29.40;;;;;;497119;237;1117;-69
2021/04/19 05:33:17;;;;;;;;;;;22.20;29.40;;;;;;496997;239;1142;-70
2021/04/19 05:35:18;;;;;;;;;;;22.10;29.50;;;;;;496902;239;1065;-70
2021/04/19 05:37:19;;;;;;;;;;;22.20;29.50;;;;;;496939;239;1258;-70
2021/04/19 05:39:21;;;;;;;;;;;22.20;29.50;;;;;;496805;239;1064;-69
2021/04/19 05:41:22;;;;;;;;;;;22.20;29.50;;;;;;496801;239;1210;-69
2021/04/19 05:43:23;;;;;;;;;;;22.20;29.40;;;;;;496865;239;1105;-69
2021/04/19 05:45:25;;;;;;;;;;;22.30;29.50;;;;;;496842;239;1045;-69
2021/04/19 05:47:26;;;;;;;;;;;22.20;29.40;;;;;;496672;240;2177;-69
2021/04/19 05:49:27;;;;;;;;;;;22.30;29.40;;;;;;496634;239;1064;-69
2021/04/19 05:51:28;;;;;;;;;;;22.40;29.40;;;;;;496654;239;1143;-69
2021/04/19 05:53:30;;;;;;;;;;;22.30;29.50;;;;;;496908;239;1247;-69
2021/04/19 05:55:31;;;;;;;;;;;22.30;29.40;;;;;;496832;240;1148;-69
2021/04/19 05:57:33;;;;;;;;;;;22.30;29.40;;;;;;496881;239;1153;-69
2021/04/19 05:59:34;;;;;;;;;;;22.40;29.30;;;;;;496911;239;989;-69
2021/04/19 06:01:35;;;;;;;;;;;22.50;29.30;;;;;;496759;239;1439;-69
2021/04/19 06:03:36;;;;;;;;;;;22.50;29.20;;;;;;496932;239;1076;-69
2021/04/19 06:05:38;;;;;;;;;;;22.60;29.20;;;;;;496860;239;1129;-69
2021/04/19 06:07:39;;;;;;;;;;;22.60;29.10;;;;;;496901;239;2193;-70
2021/04/19 06:09:40;;;;;;;;;;;22.60;29.10;;;;;;496686;239;1016;-69
2021/04/19 06:11:42;;;;;;;;;;;22.60;29.20;;;;;;496666;239;1268;-69
2021/04/19 06:13:43;;;;;;;;;;;22.60;29.20;;;;;;496829;239;1026;-69
2021/04/19 06:15:44;;;;;;;;;;;22.60;29.10;;;;;;496722;239;1022;-69
2021/04/19 06:17:45;;;;;;;;;;;22.60;29.10;;;;;;496793;239;1229;-69
2021/04/19 06:19:47;;;;;;;;;;;22.70;29.20;;;;;;496662;239;1021;-70
2021/04/19 06:21:48;;;;;;;;;;;22.70;29.20;;;;;;496746;236;1190;-69
2021/04/19 06:23:49;;;;;;;;;;;22.60;29.10;;;;;;496815;239;1040;-69
2021/04/19 06:25:51;;;;;;;;;;;22.60;29.20;;;;;;496678;239;1239;-69
2021/04/19 06:27:52;;;;;;;;;;;22.70;29.20;;;;;;496698;239;2169;-69
2021/04/19 06:29:53;;;;;;;;;;;22.70;29.20;;;;;;496713;239;1079;-69
2021/04/19 06:31:55;;;;;;;;;;;22.70;29.20;;;;;;496731;239;1111;-69
2021/04/19 06:33:56;;;;;;;;;;;22.70;29.20;;;;;;496609;239;1037;-69
2021/04/19 06:35:57;;;;;;;;;;;22.70;29.20;;;;;;496707;239;1255;-69
2021/04/19 06:37:59;;;;;;;;;;;22.80;29.20;;;;;;496863;239;1149;-69
2021/04/19 06:40:00;;;;;;;;;;;22.70;29.20;;;;;;496616;239;1063;-69
2021/04/19 06:42:02;;;;;;;;;;;22.80;29.20;;;;;;496787;239;1207;-69
2021/04/19 06:44:03;;;;;;;;;;;22.80;29.30;;;;;;496703;238;1456;-69
2021/04/19 06:46:04;;;;;;;;;;;22.80;29.20;;;;;;496594;236;1145;-69
2021/04/19 06:48:05;;;;;;;;;;;22.80;29.30;;;;;;496789;239;2129;-69
2021/04/19 06:50:07;;;;;;;;;;;22.80;29.30;;;;;;496721;239;1039;-69
2021/04/19 06:52:08;;;;;;;;;;;22.80;29.30;;;;;;496647;239;1192;-69
2021/04/19 06:54:10;;;;;;;;;;;22.90;29.20;;;;;;496235;239;1339;-70
2021/04/19 06:56:11;;;;;;;;;;;22.80;29.20;;;;;;496303;239;1579;-70
2021/04/19 06:58:13;;;;;;;;;;;22.80;29.20;;;;;;496496;239;1112;-70
2021/04/19 07:00:14;;;;;;;;;;;22.80;29.30;;;;;;496355;239;1133;-70
2021/04/19 07:02:15;;;;;;;;;;;22.80;29.30;;;;;;496460;239;1139;-69
2021/04/19 07:04:17;;;;;;;;;;;22.80;29.20;;;;;;496679;239;1163;-69
2021/04/19 07:06:19;;;;;;;;;;;22.80;29.20;;;;;;496653;239;1071;-69
2021/04/19 07:08:19;;;;;;;;;;;22.80;29.20;;;;;;496665;239;2241;-70
2021/04/19 07:10:20;;;;;;;;;;;22.80;29.30;;;;;;496647;239;1040;-69
2021/04/19 07:12:22;;;;;;;;;;;22.80;29.30;;;;;;496747;239;1186;-69
2021/04/19 07:14:23;;;;;;;;;;;22.80;29.40;;;;;;496628;239;1107;-69
2021/04/19 07:16:24;;;;;;;;;;;22.80;29.40;;;;;;496633;239;1121;-69
2021/04/19 07:18:26;;;;;;;;;;;22.80;29.40;;;;;;496662;239;1315;-69
2021/04/19 07:20:27;;;;;;;;;;;22.90;29.30;;;;;;496529;239;1116;-69
2021/04/19 07:22:28;;;;;;;;;;;22.90;29.40;;;;;;496557;239;1123;-69
2021/04/19 07:24:29;;;;;;;;;;;22.80;29.40;;;;;;496559;239;1175;-69
2021/04/19 07:26:31;;;;;;;;;;;22.80;29.50;;;;;;496653;235;1204;-69
2021/04/19 07:28:36;;;;;;;;;;;22.90;29.50;;;;;;496648;239;2173;-69
2021/04/19 07:30:33;;;;;;;;;;;22.90;29.50;;;;;;496411;239;1272;-69
2021/04/19 07:32:35;;;;;;;;;;;22.90;29.40;;;;;;496472;239;1288;-70
2021/04/19 07:34:36;;;;;;;;;;;23.00;29.40;;;;;;496682;238;1102;-69
2021/04/19 07:36:37;;;;;;;;;;;23.00;29.40;;;;;;496881;239;1342;-69
2021/04/19 07:38:38;;;;;;;;;;;22.90;29.40;;;;;;496849;239;1164;-69
2021/04/19 07:40:41;;;;;;;;;;;22.90;29.50;;;;;;496770;240;1258;-69
2021/04/19 07:42:41;;;;;;;;;;;22.90;29.50;;;;;;496620;239;1311;-69
2021/04/19 07:44:42;;;;;;;;;;;22.90;29.60;;;;;;496347;239;1085;-70
2021/04/19 07:46:44;;;;;;;;;;;22.90;29.60;;;;;;496474;239;1355;-69
2021/04/19 07:48:46;;;;;;;;;;;22.90;29.60;;;;;;497305;239;2196;-69
2021/04/19 07:50:47;;;;;;;;;;;22.90;29.60;;;;;;496710;239;1162;-70
2021/04/19 07:52:48;;;;;;;;;;;22.90;29.60;;;;;;496789;239;1196;-69
2021/04/19 07:54:49;;;;;;;;;;;22.90;29.60;;;;;;496633;239;1100;-70
2021/04/19 07:56:50;;;;;;;;;;;22.90;29.70;;;;;;496728;239;1156;-69
2021/04/19 07:58:52;;;;;;;;;;;22.90;29.60;;;;;;496612;239;1138;-69
2021/04/19 08:00:53;;;;;;;;;;;23.00;29.60;;;;;;496401;239;1176;-69
2021/04/19 08:02:54;;;;;;;;;;;23.00;29.60;;;;;;496700;239;1136;-69
2021/04/19 08:04:56;;;;;;;;;;;23.00;29.60;;;;;;496480;239;1155;-69
2021/04/19 08:06:57;;;;;;;;;;;22.90;29.60;;;;;;496642;239;1127;-69
2021/04/19 08:08:58;;;;;;;;;;;22.90;29.60;;;;;;496588;239;2129;-69
2021/04/19 08:10:59;;;;;;;;;;;22.90;29.70;;;;;;496549;239;1144;-69
2021/04/19 08:13:01;;;;;;;;;;;22.90;29.70;;;;;;496739;239;1156;-69
2021/04/19 08:15:03;;;;;;;;;;;22.90;29.70;;;;;;496588;239;1164;-69
2021/04/19 08:17:04;;;;;;;;;;;22.90;29.70;;;;;;496840;239;1148;-69
2021/04/19 08:19:05;;;;;;;;;;;22.90;29.70;;;;;;496894;239;1060;-69
2021/04/19 08:21:06;;;;;;;;;;;22.90;29.70;;;;;;496721;239;1030;-69
2021/04/19 08:23:08;;;;;;;;;;;22.90;29.70;;;;;;496705;239;1097;-69
2021/04/19 08:25:09;;;;;;;;;;;22.90;29.80;;;;;;496640;239;1111;-69
2021/04/19 08:27:10;;;;;;;;;;;22.90;29.80;;;;;;496660;239;1277;-69
2021/04/19 08:29:12;;;;;;;;;;;22.90;29.70;;;;;;496704;239;2177;-69
2021/04/19 08:31:13;;;;;;;;;;;23.00;29.80;;;;;;496463;239;1071;-69
2021/04/19 08:33:14;;;;;;;;;;;23.00;29.70;;;;;;496522;239;1071;-69
2021/04/19 08:35:15;;;;;;;;;;;23.00;29.70;;;;;;496530;239;1050;-69
2021/04/19 08:37:17;;;;;;;;;;;23.00;29.70;;;;;;496437;239;1067;-69
2021/04/19 08:39:18;;;;;;;;;;;23.00;29.70;;;;;;496588;239;1216;-69
2021/04/19 08:41:19;;;;;;;;;;;22.90;29.80;;;;;;496602;239;1133;-69
2021/04/19 08:43:20;;;;;;;;;;;22.90;29.90;;;;;;496598;239;1203;-69
2021/04/19 08:45:22;;;;;;;;;;;22.90;29.80;;;;;;496423;239;1506;-69
2021/04/19 08:47:27;;;;;;;;;;;23.00;29.80;;;;;;496590;239;1240;-69
2021/04/19 08:49:24;;;;;;;;;;;23.00;29.90;;;;;;496318;239;2185;-69
2021/04/19 08:51:26;;;;;;;;;;;22.90;29.90;;;;;;496453;239;1211;-69
2021/04/19 08:53:27;;;;;;;;;;;23.00;30.00;;;;;;496704;240;1101;-69
2021/04/19 08:55:28;;;;;;;;;;;23.00;30.00;;;;;;496572;239;1190;-69
2021/04/19 08:57:29;;;;;;;;;;;23.00;30.00;;;;;;496791;239;1267;-69
2021/04/19 08:59:31;;;;;;;;;;;23.00;30.00;;;;;;496787;239;1033;-69
2021/04/19 09:01:32;;;;;;;;;;;23.00;30.00;;;;;;496801;239;1142;-69
2021/04/19 09:03:33;;;;;;;;;;;23.00;30.00;;;;;;496637;239;1330;-69
2021/04/19 09:05:35;;;;;;;;;;;22.90;30.00;;;;;;496580;239;1095;-69
2021/04/19 09:07:36;;;;;;;;;;;23.00;30.00;;;;;;496490;239;1134;-70
2021/04/19 09:09:37;;;;;;;;;;;22.90;30.00;;;;;;495504;239;2186;-69
2021/04/19 09:11:38;;;;;;;;;;;23.00;30.00;;;;;;496336;235;1151;-69
2021/04/19 09:13:41;;;;;;;;;;;23.00;30.00;;;;;;496907;239;1274;-69
2021/04/19 09:15:41;;;;;;;;;;;23.00;30.10;;;;;;496682;239;1317;-69
2021/04/19 09:17:42;;;;;;;;;;;23.00;30.20;;;;;;496723;239;1382;-69
2021/04/19 09:19:43;;;;;;;;;;;22.90;30.20;;;;;;496699;239;1225;-69
2021/04/19 09:21:47;;;;;;;;;;;23.00;30.20;;;;;;496711;239;1446;-69
2021/04/19 09:23:46;;;;;;;;;;;23.00;30.10;;;;;;496385;239;1397;-69
2021/04/19 09:25:47;;;;;;;;;;;22.90;30.20;;;;;;496826;239;1056;-69
2021/04/19 09:27:49;;;;;;;;;;;22.90;30.20;;;;;;496811;239;1134;-69
2021/04/19 09:29:50;;;;;;;;;;;22.90;30.10;;;;;;496618;239;2184;-69
2021/04/19 09:31:51;;;;;;;;;;;23.00;30.10;;;;;;496677;239;1188;-69
2021/04/19 09:33:52;;;;;;;;;;;22.90;30.10;;;;;;496665;240;1260;-70
2021/04/19 09:35:54;;;;;;;;;;;23.00;30.10;;;;;;496477;238;1233;-70
2021/04/19 09:37:56;;;;;;;;;;;22.90;30.10;;;;;;496553;239;1135;-69
2021/04/19 09:39:58;;;;;;;;;;;22.90;30.20;;;;;;496680;239;1046;-69
2021/04/19 09:41:59;;;;;;;;;;;23.00;30.20;;;;;;496684;239;1729;-69
2021/04/19 09:44:00;;;;;;;;;;;22.80;30.20;;;;;;496698;239;1126;-69
2021/04/19 09:46:02;;;;;;;;;;;22.90;30.20;;;;;;496498;239;1296;-69
2021/04/19 09:48:03;;;;;;;;;;;22.90;30.20;;;;;;496611;239;1058;-69
2021/04/19 09:50:04;;;;;;;;;;;22.90;30.20;;;;;;496313;239;2174;-69
2021/04/19 09:52:06;;;;;;;;;;;22.90;30.20;;;;;;496484;239;1131;-69
2021/04/19 09:54:07;;;;;;;;;;;22.90;30.10;;;;;;496294;239;1345;-69
2021/04/19 09:56:08;;;;;;;;;;;23.00;30.00;;;;;;496530;239;1406;-69
2021/04/19 09:58:09;;;;;;;;;;;23.00;30.00;;;;;;496620;239;1148;-69
2021/04/19 10:00:11;;;;;;;;;;;23.00;30.00;;;;;;496504;239;1047;-69
2021/04/19 10:02:12;;;;;;;;;;;23.00;30.10;;;;;;496378;240;1456;-69
2021/04/19 10:04:13;;;;;;;;;;;22.90;30.10;;;;;;496492;239;1363;-69
2021/04/19 10:06:14;;;;;;;;;;;23.00;30.00;;;;;;496786;239;1242;-69
2021/04/19 10:08:16;;;;;;;;;;;22.90;30.10;;;;;;496638;239;1051;-69
2021/04/19 10:10:17;;;;;;;;;;;22.90;30.10;;;;;;496348;239;2161;-69
2021/04/19 10:12:18;;;;;;;;;;;22.90;30.10;;;;;;496433;235;1101;-69
2021/04/19 10:14:20;;;;;;;;;;;22.90;30.00;;;;;;496551;239;1270;-69
2021/04/19 10:16:21;;;;;;;;;;;22.90;30.00;;;;;;496604;239;1260;-69
2021/04/19 10:18:22;;;;;;;;;;;22.90;30.00;;;;;;496686;239;1041;-69
2021/04/19 10:20:24;;;;;;;;;;;22.90;30.00;;;;;;496601;239;1100;-69
2021/04/19 10:22:25;;;;;;;;;;;22.70;30.20;;;;;;496539;239;1454;-69
2021/04/19 10:24:26;;;;;;;;;;;22.80;30.30;;;;;;496655;239;1210;-69
2021/04/19 10:26:27;;;;;;;;;;;22.60;30.40;;;;;;497055;239;988;-69
2021/04/19 10:28:29;;;;;;;;;;;22.70;30.40;;;;;;497209;239;1104;-69
2021/04/19 10:30:31;;;;;;;;;;;22.70;30.30;;;;;;496874;239;2173;-69
2021/04/19 10:32:32;;;;;;;;;;;22.70;30.40;;;;;;496513;239;1175;-69
2021/04/19 10:34:33;;;;;;;;;;;22.60;30.40;;;;;;496705;239;1177;-69
2021/04/19 10:36:35;;;;;;;;;;;22.60;30.40;;;;;;496803;239;1108;-69
2021/04/19 10:38:35;;;;;;;;;;;22.70;30.40;;;;;;496575;239;1339;-70
2021/04/19 10:40:37;;;;;;;;;;;22.80;30.40;;;;;;496303;239;1172;-69
2021/04/19 10:42:38;;;;;;;;;;;22.60;30.60;;;;;;496291;239;1128;-69
2021/04/19 10:44:39;;;;;;;;;;;22.60;30.50;;;;;;496622;239;1226;-69
2021/04/19 10:46:40;;;;;;;;;;;22.60;30.50;;;;;;496692;238;1198;-69
2021/04/19 10:48:42;;;;;;;;;;;22.70;30.50;;;;;;496641;239;1093;-69
2021/04/19 10:50:43;;;;;;;;;;;22.70;30.40;;;;;;496282;239;1054;-69
2021/04/19 10:52:44;;;;;;;;;;;22.70;30.30;;;;;;496790;239;1250;-69
2021/04/19 10:54:46;;;;;;;;;;;22.80;30.30;;;;;;496779;239;1317;-69
2021/04/19 10:56:47;;;;;;;;;;;22.80;30.30;;;;;;496652;238;1277;-69
2021/04/19 10:58:48;;;;;;;;;;;22.90;30.20;;;;;;496619;239;1163;-69
2021/04/19 11:00:49;;;;;;;;;;;22.80;30.20;;;;;;496528;239;1131;-69
2021/04/19 11:02:51;;;;;;;;;;;22.80;30.20;;;;;;497436;239;1155;-67
2021/04/19 11:04:52;;;;;;;;;;;22.80;30.20;;;;;;497036;239;1215;-67
2021/04/19 11:06:55;;;;;;;;;;;22.50;30.50;;;;;;496425;239;1155;-69
2021/04/19 11:08:55;;;;;;;;;;;22.50;30.70;;;;;;496472;239;2188;-69
2021/04/19 11:10:56;;;;;;;;;;;22.60;30.50;;;;;;496580;239;1234;-69
2021/04/19 11:12:57;;;;;;;;;;;22.70;30.30;;;;;;496554;239;1187;-69
2021/04/19 11:14:58;;;;;;;;;;;22.80;30.20;;;;;;496847;239;1177;-69
2021/04/19 11:17:00;;;;;;;;;;;22.80;30.20;;;;;;496636;239;1300;-69
2021/04/19 11:19:01;;;;;;;;;;;22.80;30.20;;;;;;496539;239;1078;-69
2021/04/19 11:21:02;;;;;;;;;;;22.80;30.20;;;;;;496469;235;1187;-69
2021/04/19 11:23:03;;;;;;;;;;;22.70;30.10;;;;;;496481;239;1101;-69
2021/04/19 11:25:05;;;;;;;;;;;22.80;30.10;;;;;;496512;239;1053;-69
2021/04/19 11:27:06;;;;;;;;;;;22.70;30.20;;;;;;496583;239;1044;-69
2021/04/19 11:29:08;;;;;;;;;;;22.80;30.20;;;;;;496571;239;2204;-69
2021/04/19 11:31:09;;;;;;;;;;;22.90;30.20;;;;;;496471;239;1423;-69
2021/04/19 11:33:10;;;;;;;;;;;22.70;30.30;;;;;;496569;239;1070;-69
2021/04/19 11:35:11;;;;;;;;;;;22.80;30.20;;;;;;496596;239;1038;-69
2021/04/19 11:37:12;;;;;;;;;;;22.80;30.20;;;;;;496591;239;1096;-69
2021/04/19 11:39:14;;;;;;;;;;;22.80;30.20;;;;;;496737;239;1071;-69
2021/04/19 11:41:15;;;;;;;;;;;22.80;30.20;;;;;;496727;239;1056;-69
2021/04/19 11:43:16;;;;;;;;;;;22.80;30.20;;;;;;496669;239;1171;-69
2021/04/19 11:45:18;;;;;;;;;;;22.80;30.20;;;;;;496523;239;1411;-69
2021/04/19 11:47:19;;;;;;;;;;;22.90;30.20;;;;;;496551;239;1087;-69
2021/04/19 11:49:23;;;;;;;;;;;22.80;30.10;;;;;;496332;239;2185;-69
2021/04/19 11:51:22;;;;;;;;;;;22.90;30.10;;;;;;496263;239;1413;-69
2021/04/19 11:53:23;;;;;;;;;;;22.80;30.10;;;;;;496507;239;1104;-69
2021/04/19 11:55:24;;;;;;;;;;;22.80;30.10;;;;;;496544;239;1252;-69
2021/04/19 11:57:26;;;;;;;;;;;22.80;30.20;;;;;;496562;239;1105;-69